createdAt,value
2019-05-18T00:01:52.670Z,90.60
2019-05-18T00:04:22.249Z,90.40
2019-05-18T00:06:51.724Z,90.60
2019-05-18T00:09:21.230Z,90.40
2019-05-18T00:11:50.881Z,90.60
2019-05-18T00:14:20.394Z,91.20
2019-05-18T00:16:49.856Z,91.00
2019-05-18T00:19:19.425Z,90.20
2019-05-18T00:21:48.964Z,90.70
2019-05-18T00:24:18.644Z,90.60
2019-05-18T00:26:48.141Z,91.10
2019-05-18T00:29:18.477Z,90.80
2019-05-18T00:31:47.877Z,91.10
2019-05-18T00:34:17.571Z,91.30
2019-05-18T00:36:47.030Z,91.30
2019-05-18T00:39:16.533Z,91.40
2019-05-18T00:41:46.069Z,91.00
2019-05-18T00:44:15.575Z,91.10
2019-05-18T00:46:45.113Z,90.70
2019-05-18T00:49:16.032Z,90.60
2019-05-18T00:51:44.736Z,90.50
2019-05-18T00:54:14.174Z,90.00
2019-05-18T00:56:43.744Z,90.60
2019-05-18T00:59:15.993Z,90.60
2019-05-18T01:01:44.410Z,90.50
2019-05-18T01:04:13.981Z,90.60
2019-05-18T01:06:43.471Z,90.40
2019-05-18T01:09:13.002Z,90.60
2019-05-18T01:11:42.553Z,90.40
2019-05-18T01:14:12.013Z,90.40
2019-05-18T01:16:41.537Z,90.30
2019-05-18T01:19:11.047Z,90.90
2019-05-18T01:21:40.590Z,91.20
2019-05-18T01:24:10.767Z,91.10
2019-05-18T01:26:40.310Z,91.20
2019-05-18T01:29:10.001Z,90.70
2019-05-18T01:31:39.477Z,90.40
2019-05-18T01:34:09.092Z,90.10
2019-05-18T01:36:38.559Z,90.00
2019-05-18T01:39:08.450Z,89.90
2019-05-18T01:41:37.965Z,90.60
2019-05-18T01:44:07.496Z,90.20
2019-05-18T01:46:37.016Z,89.40
2019-05-18T01:49:06.531Z,90.20
2019-05-18T01:51:36.037Z,90.70
2019-05-18T01:54:05.504Z,90.70
2019-05-18T01:56:34.994Z,91.00
2019-05-18T01:59:04.476Z,90.20
2019-05-18T02:01:34.910Z,89.70
2019-05-18T02:04:05.434Z,89.20
2019-05-18T02:06:35.050Z,90.10
2019-05-18T02:09:07.290Z,90.50
2019-05-18T02:11:37.253Z,90.40
2019-05-18T02:14:06.836Z,90.00
2019-05-18T02:16:36.313Z,89.50
2019-05-18T02:19:05.895Z,90.00
2019-05-18T02:21:35.402Z,90.10
2019-05-18T02:24:04.933Z,89.20
2019-05-18T02:26:35.054Z,88.80
2019-05-18T02:29:04.582Z,90.00
2019-05-18T02:31:35.075Z,90.10
2019-05-18T02:34:04.785Z,89.30
2019-05-18T02:36:35.054Z,90.20
2019-05-18T02:39:07.549Z,89.60
2019-05-18T02:41:37.338Z,90.10
2019-05-18T02:44:06.974Z,90.20
2019-05-18T02:46:36.477Z,90.10
2019-05-18T02:49:06.060Z,90.00
2019-05-18T02:51:35.590Z,89.50
2019-05-18T02:54:05.344Z,90.00
2019-05-18T02:56:35.358Z,90.00
2019-05-18T02:59:05.717Z,89.60
2019-05-18T03:01:35.225Z,90.30
2019-05-18T03:04:04.815Z,90.40
2019-05-18T03:06:36.195Z,90.40
2019-05-18T03:09:06.830Z,90.70
2019-05-18T03:11:37.973Z,90.60
2019-05-18T03:14:07.619Z,90.60
2019-05-18T03:16:37.154Z,90.20
2019-05-18T03:19:08.764Z,90.50
2019-05-18T03:21:37.786Z,90.80
2019-05-18T03:24:07.323Z,91.00
2019-05-18T03:26:36.777Z,91.30
2019-05-18T03:29:06.268Z,91.30
2019-05-18T03:31:35.734Z,91.50
2019-05-18T03:34:05.302Z,90.80
2019-05-18T03:36:35.095Z,90.30
2019-05-18T03:39:05.720Z,90.10
2019-05-18T03:41:35.340Z,90.00
2019-05-18T03:44:06.628Z,90.10
2019-05-18T03:46:37.081Z,90.40
2019-05-18T03:49:23.543Z,90.30
2019-05-18T03:51:37.646Z,90.20
2019-05-18T03:54:07.212Z,90.20
2019-05-18T03:56:36.809Z,90.10
2019-05-18T03:59:06.290Z,90.20
2019-05-18T04:01:35.788Z,90.70
2019-05-18T04:04:05.353Z,90.80
2019-05-18T04:06:35.045Z,90.80
2019-05-18T04:09:06.090Z,90.90
2019-05-18T04:11:35.700Z,91.20
2019-05-18T04:14:08.139Z,91.20
2019-05-18T04:16:36.354Z,91.30
2019-05-18T04:19:05.950Z,90.60
2019-05-18T04:21:35.433Z,90.90
2019-05-18T04:24:04.969Z,90.60
2019-05-18T04:26:35.102Z,91.30
2019-05-18T04:29:04.740Z,91.50
2019-05-18T04:31:35.268Z,91.40
2019-05-18T04:34:04.727Z,91.10
2019-05-18T04:36:35.178Z,90.90
2019-05-18T04:39:06.527Z,91.20
2019-05-18T04:41:36.028Z,91.10
2019-05-18T04:44:05.554Z,91.50
2019-05-18T04:46:35.129Z,91.40
2019-05-18T04:49:04.683Z,91.50
2019-05-18T04:51:35.093Z,91.70
2019-05-18T04:54:04.664Z,91.50
2019-05-18T04:56:35.207Z,91.60
2019-05-18T04:59:04.787Z,91.20
2019-05-18T05:01:36.739Z,91.10
2019-05-18T05:04:06.375Z,91.40
2019-05-18T05:06:35.865Z,91.20
2019-05-18T05:09:07.488Z,90.90
2019-05-18T05:11:36.936Z,91.00
2019-05-18T05:14:06.524Z,90.90
2019-05-18T05:16:42.336Z,90.80
2019-05-18T05:19:11.904Z,91.00
2019-05-18T05:21:41.395Z,91.40
2019-05-18T05:24:11.176Z,91.10
2019-05-18T05:26:40.689Z,90.80
2019-05-18T05:29:10.250Z,90.80
2019-05-18T05:31:39.699Z,90.90
2019-05-18T05:34:10.889Z,90.90
2019-05-18T05:36:40.442Z,91.50
2019-05-18T05:39:10.046Z,91.60
2019-05-18T05:41:39.641Z,92.10
2019-05-18T05:44:09.245Z,93.20
2019-05-18T05:46:38.732Z,93.10
2019-05-18T05:49:08.309Z,93.50
2019-05-18T05:51:37.876Z,93.80
2019-05-18T05:54:07.340Z,93.70
2019-05-18T05:56:36.850Z,93.20
2019-05-18T05:59:06.394Z,93.10
2019-05-18T06:01:36.913Z,93.40
2019-05-18T06:04:06.423Z,93.40
2019-05-18T06:06:36.074Z,93.40
2019-05-18T06:09:07.238Z,93.30
2019-05-18T06:11:36.781Z,93.00
2019-05-18T06:14:06.359Z,93.10
2019-05-18T06:16:35.803Z,92.80
2019-05-18T06:19:05.307Z,92.50
2019-05-18T06:21:35.190Z,92.30
2019-05-18T06:24:06.601Z,92.20
2019-05-18T06:26:36.127Z,92.30
2019-05-18T06:29:05.604Z,92.10
2019-05-18T06:31:35.162Z,92.10
2019-05-18T06:34:04.701Z,91.70
2019-05-18T06:36:35.154Z,91.60
2019-05-18T06:39:07.496Z,91.00
2019-05-18T06:41:36.964Z,90.90
2019-05-18T06:44:06.623Z,90.10
2019-05-18T06:46:36.100Z,90.30
2019-05-18T06:49:07.177Z,90.70
2019-05-18T06:51:36.667Z,90.40
2019-05-18T06:54:06.320Z,90.00
2019-05-18T06:56:37.029Z,89.70
2019-05-18T06:59:07.253Z,89.90
2019-05-18T07:01:36.774Z,89.10
2019-05-18T07:04:06.266Z,88.70
2019-05-18T07:06:35.920Z,89.00
2019-05-18T07:09:13.215Z,89.60
2019-05-18T07:11:38.294Z,88.70
2019-05-18T07:14:07.797Z,87.60
2019-05-18T07:16:37.299Z,88.00
2019-05-18T07:19:06.780Z,88.10
2019-05-18T07:21:36.320Z,88.70
2019-05-18T07:24:05.860Z,88.70
2019-05-18T07:26:35.493Z,88.70
2019-05-18T07:29:05.803Z,88.70
2019-05-18T07:31:35.383Z,89.80
2019-05-18T07:34:04.912Z,87.70
2019-05-18T07:36:35.630Z,87.40
2019-05-18T07:39:06.371Z,86.10
2019-05-18T07:41:46.173Z,85.40
2019-05-18T07:44:07.002Z,86.20
2019-05-18T07:46:36.416Z,85.30
2019-05-18T07:49:06.095Z,86.00
2019-05-18T07:51:37.344Z,85.90
2019-05-18T07:54:06.857Z,86.40
2019-05-18T07:56:36.389Z,85.30
2019-05-18T07:59:05.980Z,85.10
2019-05-18T08:01:35.486Z,86.40
2019-05-18T08:04:05.151Z,85.00
2019-05-18T08:06:35.395Z,85.00
2019-05-18T08:09:07.130Z,84.70
2019-05-18T08:11:36.640Z,83.70
2019-05-18T08:14:06.137Z,84.10
2019-05-18T08:16:35.723Z,84.50
2019-05-18T08:19:05.310Z,83.90
2019-05-18T08:21:35.392Z,83.70
2019-05-18T08:24:05.300Z,82.70
2019-05-18T08:26:35.256Z,81.30
2019-05-18T08:29:04.902Z,80.60
2019-05-18T08:31:35.315Z,80.10
2019-05-18T08:34:04.892Z,81.00
2019-05-18T08:36:35.287Z,79.60
2019-05-18T08:39:06.273Z,80.60
2019-05-18T08:41:35.843Z,82.40
2019-05-18T08:44:05.343Z,81.20
2019-05-18T08:46:35.434Z,79.80
2019-05-18T08:49:06.545Z,80.50
2019-05-18T08:51:36.116Z,78.20
2019-05-18T08:54:05.718Z,77.40
2019-05-18T08:56:35.245Z,73.40
2019-05-18T08:59:04.854Z,72.50
2019-05-18T09:01:35.255Z,70.00
2019-05-18T09:04:04.931Z,70.40
2019-05-18T09:06:35.353Z,70.80
2019-05-18T09:09:06.474Z,69.50
2019-05-18T09:11:36.005Z,69.00
2019-05-18T09:14:05.543Z,70.40
2019-05-18T09:16:35.251Z,70.10
2019-05-18T09:19:04.754Z,70.10
2019-05-18T09:21:35.167Z,67.50
2019-05-18T09:24:04.729Z,67.70
2019-05-18T09:26:35.120Z,69.70
2019-05-18T09:29:04.854Z,69.50
2019-05-18T09:31:34.588Z,72.60
2019-05-18T09:34:04.178Z,67.40
2019-05-18T09:36:33.699Z,66.30
2019-05-18T09:39:03.836Z,65.40
2019-05-18T09:41:33.479Z,67.50
2019-05-18T09:44:03.051Z,68.30
2019-05-18T09:46:32.722Z,67.60
2019-05-18T09:49:15.480Z,64.80
2019-05-18T09:51:45.102Z,64.70
2019-05-18T09:54:14.610Z,60.70
2019-05-18T09:56:44.336Z,62.90
2019-05-18T09:59:13.849Z,59.30
2019-05-18T10:01:43.647Z,55.80
2019-05-18T10:04:13.145Z,57.10
2019-05-18T10:06:42.700Z,59.60
2019-05-18T10:09:12.152Z,60.50
2019-05-18T10:11:41.799Z,58.70
2019-05-18T10:14:11.328Z,58.60
2019-05-18T10:16:40.784Z,56.80
2019-05-18T10:19:10.291Z,54.70
2019-05-18T10:21:39.862Z,54.60
2019-05-18T10:24:09.380Z,53.00
2019-05-18T10:26:38.876Z,55.00
2019-05-18T10:29:08.423Z,57.00
2019-05-18T10:31:37.904Z,56.20
2019-05-18T10:34:07.390Z,55.30
2019-05-18T10:36:41.257Z,54.80
2019-05-18T10:39:10.890Z,53.10
2019-05-18T10:41:40.460Z,50.10
2019-05-18T10:44:09.968Z,52.20
2019-05-18T10:46:39.508Z,48.10
2019-05-18T10:49:09.020Z,50.20
2019-05-18T10:51:38.512Z,49.50
2019-05-18T10:54:08.202Z,47.30
2019-05-18T10:56:37.720Z,49.60
2019-05-18T10:59:07.314Z,49.90
2019-05-18T11:01:36.904Z,49.00
2019-05-18T11:04:06.925Z,49.50
2019-05-18T11:06:36.622Z,48.50
2019-05-18T11:09:07.075Z,48.20
2019-05-18T11:11:36.926Z,45.90
2019-05-18T11:14:06.599Z,46.10
2019-05-18T11:16:37.169Z,47.00
2019-05-18T11:19:06.785Z,46.50
2019-05-18T11:21:36.331Z,48.40
2019-05-18T11:24:05.870Z,48.80
2019-05-18T11:26:35.465Z,48.60
2019-05-18T11:29:05.095Z,46.20
2019-05-18T11:31:35.487Z,45.70
2019-05-18T11:34:04.205Z,47.60
2019-05-18T11:36:33.601Z,46.40
2019-05-18T11:39:03.429Z,49.00
2019-05-18T11:41:33.061Z,48.10
2019-05-18T11:44:03.127Z,47.00
2019-05-18T11:46:32.608Z,45.50
2019-05-18T11:49:02.045Z,47.00
2019-05-18T11:51:31.577Z,46.70
2019-05-18T11:54:01.093Z,43.60
2019-05-18T11:56:30.542Z,43.20
2019-05-18T11:59:00.056Z,45.30
2019-05-18T12:01:29.527Z,44.60
2019-05-18T12:03:59.050Z,43.70
2019-05-18T12:06:28.547Z,43.40
2019-05-18T12:08:58.700Z,44.20
2019-05-18T12:11:28.702Z,44.20
2019-05-18T12:13:59.551Z,43.20
2019-05-18T12:16:29.001Z,42.60
2019-05-18T12:18:59.650Z,41.70
2019-05-18T12:21:29.204Z,44.70
2019-05-18T12:24:14.153Z,40.40
2019-05-18T12:26:31.203Z,36.10
2019-05-18T12:29:00.791Z,39.70
2019-05-18T12:31:30.422Z,43.40
2019-05-18T12:34:00.022Z,40.00
2019-05-18T12:36:30.557Z,35.90
2019-05-18T12:39:00.154Z,38.80
2019-05-18T12:41:29.649Z,38.50
2019-05-18T12:44:00.633Z,40.80
2019-05-18T12:46:30.222Z,39.70
2019-05-18T12:48:59.713Z,39.80
2019-05-18T12:51:29.241Z,38.70
2019-05-18T12:53:58.803Z,37.00
2019-05-18T12:56:28.364Z,36.90
2019-05-18T12:58:57.937Z,37.60
2019-05-18T13:01:27.474Z,37.30
2019-05-18T13:03:57.153Z,39.50
2019-05-18T13:06:26.728Z,38.60
2019-05-18T13:08:56.275Z,37.90
2019-05-18T13:11:25.809Z,37.30
2019-05-18T13:13:55.468Z,39.20
2019-05-18T13:16:25.937Z,39.50
2019-05-18T13:18:55.493Z,39.00
2019-05-18T13:21:26.052Z,37.80
2019-05-18T13:23:55.709Z,39.00
2019-05-18T13:26:25.315Z,41.00
2019-05-18T13:28:54.861Z,37.80
2019-05-18T13:31:24.522Z,37.80
2019-05-18T13:33:55.204Z,37.20
2019-05-18T13:36:25.412Z,38.00
2019-05-18T13:38:54.916Z,39.20
2019-05-18T13:41:24.435Z,40.40
2019-05-18T13:43:54.122Z,36.60
2019-05-18T13:46:26.525Z,38.10
2019-05-18T13:48:56.139Z,38.60
2019-05-18T13:51:25.768Z,38.60
2019-05-18T13:53:56.722Z,40.20
2019-05-18T13:56:26.327Z,38.60
2019-05-18T13:58:55.119Z,39.10
2019-05-18T14:01:24.544Z,38.50
2019-05-18T14:03:54.192Z,38.10
2019-05-18T14:06:23.907Z,38.40
2019-05-18T14:08:53.611Z,38.70
2019-05-18T14:11:23.157Z,36.60
2019-05-18T14:13:52.067Z,37.20
2019-05-18T14:16:21.662Z,39.20
2019-05-18T14:18:51.208Z,37.00
2019-05-18T14:21:20.780Z,33.70
2019-05-18T14:23:50.484Z,37.00
2019-05-18T14:26:20.272Z,36.20
2019-05-18T14:28:49.066Z,34.50
2019-05-18T14:31:18.609Z,35.50
2019-05-18T14:33:48.550Z,35.90
2019-05-18T14:36:18.065Z,34.60
2019-05-18T14:38:48.956Z,36.20
2019-05-18T14:41:19.168Z,34.00
2019-05-18T14:46:56.548Z,31.70
2019-05-18T14:49:27.049Z,36.00
2019-05-18T14:51:56.676Z,35.70
2019-05-18T14:54:26.196Z,37.80
2019-05-18T14:56:57.764Z,36.90
2019-05-18T14:59:26.934Z,35.80
2019-05-18T15:01:58.123Z,37.80
2019-05-18T15:04:27.630Z,37.70
2019-05-18T15:06:57.129Z,39.40
2019-05-18T15:09:26.669Z,36.90
2019-05-18T15:11:56.163Z,36.50
2019-05-18T15:14:29.463Z,37.30
2019-05-18T15:16:59.066Z,37.40
2019-05-18T15:19:28.707Z,38.20
2019-05-18T15:21:58.395Z,35.80
2019-05-18T15:24:27.981Z,37.80
2019-05-18T15:26:57.543Z,39.40
2019-05-18T15:29:27.138Z,41.40
2019-05-18T15:31:56.037Z,40.10
2019-05-18T15:34:25.527Z,40.40
2019-05-18T15:36:55.161Z,42.00
2019-05-18T15:39:24.745Z,42.90
2019-05-18T15:41:54.239Z,44.00
2019-05-18T15:44:23.909Z,44.20
2019-05-18T15:46:53.454Z,43.60
2019-05-18T15:49:23.107Z,42.60
2019-05-18T15:51:52.629Z,43.10
2019-05-18T15:54:22.332Z,44.60
2019-05-18T15:56:51.893Z,44.00
2019-05-18T15:59:21.474Z,44.00
2019-05-18T16:01:50.997Z,43.20
2019-05-18T16:04:20.944Z,43.50
2019-05-18T16:06:50.659Z,45.20
2019-05-18T16:09:20.206Z,44.90
2019-05-18T16:11:49.709Z,44.40
2019-05-18T16:14:19.153Z,45.00
2019-05-18T16:16:48.967Z,46.10
2019-05-18T16:19:18.336Z,46.70
2019-05-18T16:21:47.856Z,47.40
2019-05-18T16:24:17.464Z,47.90
2019-05-18T16:26:50.917Z,48.90
2019-05-18T16:29:20.419Z,48.70
2019-05-18T16:31:49.908Z,48.20
2019-05-18T16:34:22.254Z,47.20
2019-05-18T16:36:52.308Z,47.40
2019-05-18T16:39:21.902Z,48.00
2019-05-18T16:41:51.476Z,49.00
2019-05-18T16:44:20.942Z,49.30
2019-05-18T16:46:50.464Z,49.70
2019-05-18T16:49:20.024Z,50.20
2019-05-18T16:51:49.564Z,50.60
2019-05-18T16:54:19.113Z,50.20
2019-05-18T16:56:48.648Z,48.50
2019-05-18T16:59:18.140Z,48.50
2019-05-18T17:01:48.064Z,50.20
2019-05-18T17:04:17.894Z,48.70
2019-05-18T17:06:47.383Z,50.10
2019-05-18T17:09:18.025Z,49.90
2019-05-18T17:11:48.247Z,49.70
2019-05-18T17:14:18.870Z,49.90
2019-05-18T17:16:49.872Z,48.40
2019-05-18T17:19:19.368Z,48.40
2019-05-18T17:21:48.915Z,49.20
2019-05-18T17:24:18.596Z,49.40
2019-05-18T17:26:52.725Z,50.00
2019-05-18T17:29:19.342Z,49.40
2019-05-18T17:31:48.922Z,48.60
2019-05-18T17:34:18.570Z,48.90
2019-05-18T17:36:52.395Z,49.40
2019-05-18T17:39:20.223Z,50.00
2019-05-18T17:41:50.479Z,51.10
2019-05-18T17:44:21.653Z,50.90
2019-05-18T17:46:51.647Z,51.10
2019-05-18T17:49:26.915Z,49.50
2019-05-18T17:51:52.405Z,50.70
2019-05-18T17:54:21.908Z,49.90
2019-05-18T17:56:51.337Z,49.60
2019-05-18T17:59:20.930Z,50.70
2019-05-18T18:01:50.436Z,51.60
2019-05-18T18:04:19.956Z,51.40
2019-05-18T18:06:49.618Z,51.30
2019-05-18T18:09:19.657Z,52.00
2019-05-18T18:11:51.055Z,51.90
2019-05-18T18:14:23.369Z,52.70
2019-05-18T18:16:53.097Z,53.40
2019-05-18T18:19:22.695Z,54.00
2019-05-18T18:21:52.514Z,54.70
2019-05-18T18:24:21.959Z,55.00
2019-05-18T18:26:51.563Z,55.80
2019-05-18T18:29:21.197Z,56.10
2019-05-18T18:31:56.599Z,57.70
2019-05-18T18:34:26.187Z,58.40
2019-05-18T18:36:55.750Z,58.40
2019-05-18T18:39:25.278Z,58.70
2019-05-18T18:41:54.782Z,58.90
2019-05-18T18:44:24.275Z,57.70
2019-05-18T18:46:53.843Z,58.40
2019-05-18T18:49:23.600Z,58.30
2019-05-18T18:51:53.181Z,59.00
2019-05-18T18:54:22.782Z,59.20
2019-05-18T18:56:52.287Z,59.20
2019-05-18T18:59:21.831Z,59.70
2019-05-18T19:01:51.389Z,60.10
2019-05-18T19:04:20.958Z,60.50
2019-05-18T19:06:52.004Z,59.40
2019-05-18T19:09:21.611Z,59.50
2019-05-18T19:11:51.124Z,59.40
2019-05-18T19:14:20.621Z,60.00
2019-05-18T19:16:50.175Z,59.20
2019-05-18T19:19:19.673Z,60.10
2019-05-18T19:21:49.167Z,60.40
2019-05-18T19:24:18.664Z,61.10
2019-05-18T19:26:48.299Z,60.90
2019-05-18T19:29:17.809Z,60.40
2019-05-18T19:31:47.737Z,60.50
2019-05-18T19:34:17.148Z,61.00
2019-05-18T19:36:46.675Z,60.70
2019-05-18T19:39:16.225Z,61.80
2019-05-18T19:41:45.749Z,61.40
2019-05-18T19:44:15.371Z,61.60
2019-05-18T19:46:44.895Z,62.10
2019-05-18T19:49:14.540Z,61.90
2019-05-18T19:51:44.164Z,61.90
2019-05-18T19:54:13.668Z,62.50
2019-05-18T19:56:44.245Z,62.70
2019-05-18T19:59:15.204Z,62.80
2019-05-18T20:01:43.874Z,63.30
2019-05-18T20:04:13.538Z,63.70
2019-05-18T20:06:45.298Z,63.70
2019-05-18T20:09:14.780Z,64.00
2019-05-18T20:11:44.283Z,63.70
2019-05-18T20:14:13.850Z,63.90
2019-05-18T20:16:44.968Z,64.00
2019-05-18T20:19:14.484Z,64.70
2019-05-18T20:21:44.047Z,64.00
2019-05-18T20:24:13.600Z,64.00
2019-05-18T20:26:43.090Z,64.30
2019-05-18T20:29:12.574Z,64.50
2019-05-18T20:31:43.574Z,64.70
2019-05-18T20:34:14.255Z,64.80
2019-05-18T20:36:43.818Z,65.70
2019-05-18T20:39:13.286Z,66.10
2019-05-18T20:41:42.821Z,65.90
2019-05-18T20:44:12.272Z,65.60
2019-05-18T20:46:41.866Z,65.40
2019-05-18T20:49:11.369Z,65.90
2019-05-18T20:51:42.408Z,66.10
2019-05-18T20:54:12.059Z,65.90
2019-05-18T20:56:41.549Z,66.40
2019-05-18T20:59:11.153Z,66.70
2019-05-18T21:01:40.781Z,67.10
2019-05-18T21:04:10.289Z,68.30
2019-05-18T21:06:39.950Z,67.20
2019-05-18T21:09:09.551Z,67.80
2019-05-18T21:11:39.051Z,68.00
2019-05-18T21:14:08.575Z,67.70
2019-05-18T21:16:38.123Z,68.60
2019-05-18T21:19:09.209Z,69.40
2019-05-18T21:21:39.881Z,69.50
2019-05-18T21:24:09.401Z,70.50
2019-05-18T21:26:38.929Z,71.40
2019-05-18T21:29:08.788Z,71.20
2019-05-18T21:31:38.271Z,71.70
2019-05-18T21:34:07.880Z,71.50
2019-05-18T21:36:37.331Z,72.20
2019-05-18T21:39:07.822Z,71.30
2019-05-18T21:41:37.397Z,71.00
2019-05-18T21:44:06.931Z,71.20
2019-05-18T21:46:39.193Z,71.70
2019-05-18T21:49:08.981Z,71.40
2019-05-18T21:51:38.487Z,72.40
2019-05-18T21:54:07.949Z,72.70
2019-05-18T21:56:37.455Z,72.10
2019-05-18T21:59:12.009Z,73.80
2019-05-18T22:01:38.215Z,73.40
2019-05-18T22:04:08.033Z,73.50
2019-05-18T22:06:37.596Z,73.30
2019-05-18T22:09:07.302Z,73.70
2019-05-18T22:11:36.872Z,73.60
2019-05-18T22:14:06.311Z,72.40
2019-05-18T22:16:35.807Z,73.50
2019-05-18T22:19:05.543Z,73.90
2019-05-18T22:21:35.919Z,73.70
2019-05-18T22:24:05.527Z,74.10
2019-05-18T22:26:35.845Z,73.40
2019-05-18T22:29:05.362Z,73.30
2019-05-18T22:31:35.813Z,74.60
2019-05-18T22:34:05.238Z,74.50
2019-05-18T22:36:34.737Z,74.00
2019-05-18T22:39:05.739Z,74.80
2019-05-18T22:41:36.812Z,74.50
2019-05-18T22:44:06.419Z,75.20
2019-05-18T22:46:36.509Z,74.70
2019-05-18T22:49:05.997Z,75.50
2019-05-18T22:51:35.940Z,74.70
2019-05-18T22:54:05.472Z,75.70
2019-05-18T22:56:35.881Z,76.10
2019-05-18T22:59:05.462Z,75.70
2019-05-18T23:01:37.454Z,76.70
2019-05-18T23:04:07.006Z,76.00
2019-05-18T23:06:36.499Z,76.00
2019-05-18T23:09:06.808Z,76.50
2019-05-18T23:11:36.324Z,76.50
2019-05-18T23:14:05.852Z,76.50
2019-05-18T23:16:36.955Z,76.70
2019-05-18T23:19:06.410Z,76.90
2019-05-18T23:21:35.905Z,76.00
2019-05-18T23:24:05.649Z,76.70
2019-05-18T23:26:35.956Z,77.20
2019-05-18T23:29:06.933Z,77.70
2019-05-18T23:31:36.440Z,77.70
2019-05-18T23:34:06.002Z,77.30
2019-05-18T23:36:36.061Z,77.50
2019-05-18T23:39:06.544Z,77.80
2019-05-18T23:41:36.208Z,77.20
2019-05-18T23:44:05.786Z,76.90
2019-05-18T23:46:35.880Z,77.10
2019-05-18T23:49:10.742Z,77.60
2019-05-18T23:51:36.469Z,77.50
2019-05-18T23:54:06.996Z,77.60
2019-05-18T23:56:36.537Z,78.30
2019-05-18T23:59:07.181Z,78.40
